Terminal Aerodrome Forecast
Issued by NWS

Home | Current Version | Previous Version | Graphics & Text | Print | Product List | Glossary On
Versions: 1 2 3 4 5 6 7 8 9 10 11 12 13 14 15 16 17
000
FTUS43 KICT 180500
TAFHUT
TAF
KHUT 180520Z 1806/1906 09009KT P6SM SCT150
     FM180900 10007KT 3SM BR VCTS OVC007CB
     FM181200 10007KT 2SM BR OVC005
     FM181500 12008KT P6SM BKN015
     FM181800 14008KT P6SM FEW040=

USA.gov is the U.S. government's official web portal to all federal, state and local government web resources and services.